sensor_id;sensor_type;location;lat;lon;timestamp;pressure;altitude;pressure_sealevel;temperature;humidity
62600;BME280;48671;48.922;2.346;2023-03-18T00:00:38;100692.63;;;13.54;69.71
62600;BME280;48671;48.922;2.346;2023-03-18T00:03:04;100685.94;;;13.49;69.99
62600;BME280;48671;48.922;2.346;2023-03-18T00:05:31;100697.88;;;13.54;69.93
62600;BME280;48671;48.922;2.346;2023-03-18T00:07:56;100692.09;;;13.48;69.80
62600;BME280;48671;48.922;2.346;2023-03-18T00:10:22;100710.84;;;13.56;70.05
62600;BME280;48671;48.922;2.346;2023-03-18T00:12:48;100711.16;;;13.50;70.14
62600;BME280;48671;48.922;2.346;2023-03-18T00:15:14;100731.31;;;13.48;70.87
62600;BME280;48671;48.922;2.346;2023-03-18T00:17:41;100716.69;;;13.44;70.30
62600;BME280;48671;48.922;2.346;2023-03-18T00:20:08;100713.53;;;13.37;71.16
62600;BME280;48671;48.922;2.346;2023-03-18T00:22:35;100718.03;;;13.35;70.87
62600;BME280;48671;48.922;2.346;2023-03-18T00:25:03;100720.69;;;13.33;70.78
62600;BME280;48671;48.922;2.346;2023-03-18T00:27:29;100713.00;;;13.30;70.98
62600;BME280;48671;48.922;2.346;2023-03-18T00:29:55;100716.63;;;13.28;71.01
62600;BME280;48671;48.922;2.346;2023-03-18T00:32:22;100721.09;;;13.26;72.13
62600;BME280;48671;48.922;2.346;2023-03-18T00:34:47;100724.06;;;13.18;71.41
62600;BME280;48671;48.922;2.346;2023-03-18T00:37:14;100728.88;;;13.08;72.36
62600;BME280;48671;48.922;2.346;2023-03-18T00:39:44;100734.03;;;13.10;71.60
62600;BME280;48671;48.922;2.346;2023-03-18T00:42:11;100750.78;;;13.06;72.21
62600;BME280;48671;48.922;2.346;2023-03-18T00:44:37;100733.72;;;12.99;71.83
62600;BME280;48671;48.922;2.346;2023-03-18T00:47:04;100737.03;;;13.02;71.69
62600;BME280;48671;48.922;2.346;2023-03-18T00:49:30;100716.66;;;12.92;71.23
62600;BME280;48671;48.922;2.346;2023-03-18T00:51:55;100721.69;;;12.95;71.46
62600;BME280;48671;48.922;2.346;2023-03-18T00:54:20;100732.88;;;12.98;71.45
62600;BME280;48671;48.922;2.346;2023-03-18T00:56:46;100726.56;;;13.02;71.32
62600;BME280;48671;48.922;2.346;2023-03-18T00:59:12;100725.78;;;13.00;71.60
62600;BME280;48671;48.922;2.346;2023-03-18T01:01:38;100726.63;;;13.01;71.51
62600;BME280;48671;48.922;2.346;2023-03-18T01:04:04;100720.66;;;12.99;70.95
62600;BME280;48671;48.922;2.346;2023-03-18T01:06:31;100735.41;;;13.00;71.30
62600;BME280;48671;48.922;2.346;2023-03-18T01:08:58;100703.66;;;12.90;71.01
62600;BME280;48671;48.922;2.346;2023-03-18T01:11:26;100720.56;;;13.00;70.85
62600;BME280;48671;48.922;2.346;2023-03-18T01:13:52;100721.53;;;12.98;70.61
62600;BME280;48671;48.922;2.346;2023-03-18T01:16:18;100727.69;;;12.97;70.86
62600;BME280;48671;48.922;2.346;2023-03-18T01:18:44;100725.31;;;12.92;70.41
62600;BME280;48671;48.922;2.346;2023-03-18T01:21:11;100717.34;;;12.95;70.35
62600;BME280;48671;48.922;2.346;2023-03-18T01:23:37;100713.09;;;12.93;70.20
62600;BME280;48671;48.922;2.346;2023-03-18T01:26:03;100712.13;;;12.95;70.17
62600;BME280;48671;48.922;2.346;2023-03-18T01:28:28;100711.88;;;13.00;70.17
62600;BME280;48671;48.922;2.346;2023-03-18T01:30:54;100701.88;;;12.91;70.01
62600;BME280;48671;48.922;2.346;2023-03-18T01:33:22;100715.28;;;13.02;69.78
62600;BME280;48671;48.922;2.346;2023-03-18T01:35:53;100711.66;;;13.04;69.80
62600;BME280;48671;48.922;2.346;2023-03-18T01:38:20;100710.06;;;13.02;69.54
62600;BME280;48671;48.922;2.346;2023-03-18T01:40:45;100692.06;;;12.96;69.52
62600;BME280;48671;48.922;2.346;2023-03-18T01:43:13;100691.00;;;13.00;69.52
62600;BME280;48671;48.922;2.346;2023-03-18T01:45:43;100701.53;;;12.98;69.02
62600;BME280;48671;48.922;2.346;2023-03-18T01:48:14;100702.28;;;13.00;69.21
62600;BME280;48671;48.922;2.346;2023-03-18T01:50:41;100691.28;;;12.94;69.00
62600;BME280;48671;48.922;2.346;2023-03-18T01:53:11;100678.63;;;12.86;69.49
62600;BME280;48671;48.922;2.346;2023-03-18T01:55:39;100686.50;;;12.84;69.05
62600;BME280;48671;48.922;2.346;2023-03-18T01:58:12;100694.34;;;12.84;68.97
62600;BME280;48671;48.922;2.346;2023-03-18T02:00:40;100698.81;;;12.82;69.30
62600;BME280;48671;48.922;2.346;2023-03-18T02:03:09;100684.38;;;12.75;69.30
62600;BME280;48671;48.922;2.346;2023-03-18T02:05:34;100686.19;;;12.73;69.33
62600;BME280;48671;48.922;2.346;2023-03-18T02:08:00;100683.59;;;12.73;68.96
62600;BME280;48671;48.922;2.346;2023-03-18T02:10:28;100684.66;;;12.69;69.46
62600;BME280;48671;48.922;2.346;2023-03-18T02:12:59;100688.94;;;12.70;69.83
62600;BME280;48671;48.922;2.346;2023-03-18T02:15:26;100692.34;;;12.72;69.45
62600;BME280;48671;48.922;2.346;2023-03-18T02:18:06;100691.56;;;12.70;69.57
62600;BME280;48671;48.922;2.346;2023-03-18T02:20:54;100689.31;;;12.62;69.60
62600;BME280;48671;48.922;2.346;2023-03-18T02:23:30;100698.06;;;12.61;69.73
62600;BME280;48671;48.922;2.346;2023-03-18T02:26:13;100695.59;;;12.58;69.94
62600;BME280;48671;48.922;2.346;2023-03-18T02:28:43;100692.78;;;12.44;71.03
62600;BME280;48671;48.922;2.346;2023-03-18T02:31:12;100697.38;;;12.39;71.08
62600;BME280;48671;48.922;2.346;2023-03-18T02:33:40;100686.59;;;12.28;70.95
62600;BME280;48671;48.922;2.346;2023-03-18T02:36:12;100684.41;;;12.18;71.09
62600;BME280;48671;48.922;2.346;2023-03-18T02:38:41;100693.84;;;12.21;70.87
62600;BME280;48671;48.922;2.346;2023-03-18T02:41:16;100687.00;;;12.18;71.09
62600;BME280;48671;48.922;2.346;2023-03-18T02:43:42;100690.28;;;12.24;70.91
62600;BME280;48671;48.922;2.346;2023-03-18T02:48:51;100689.63;;;12.18;71.18
62600;BME280;48671;48.922;2.346;2023-03-18T02:51:17;100705.28;;;12.18;70.95
62600;BME280;48671;48.922;2.346;2023-03-18T02:53:43;100711.19;;;12.22;70.70
62600;BME280;48671;48.922;2.346;2023-03-18T02:56:09;100705.22;;;12.20;70.89
62600;BME280;48671;48.922;2.346;2023-03-18T02:58:36;100704.06;;;12.26;70.85
62600;BME280;48671;48.922;2.346;2023-03-18T03:01:02;100704.22;;;12.23;70.67
62600;BME280;48671;48.922;2.346;2023-03-18T03:03:27;100690.69;;;12.14;70.49
62600;BME280;48671;48.922;2.346;2023-03-18T03:05:54;100701.47;;;12.26;70.56
62600;BME280;48671;48.922;2.346;2023-03-18T03:08:20;100698.22;;;12.21;70.71
62600;BME280;48671;48.922;2.346;2023-03-18T03:10:46;100698.22;;;12.21;70.41
62600;BME280;48671;48.922;2.346;2023-03-18T03:13:12;100716.22;;;12.27;70.28
62600;BME280;48671;48.922;2.346;2023-03-18T03:15:38;100704.78;;;12.29;70.20
62600;BME280;48671;48.922;2.346;2023-03-18T03:18:05;100711.63;;;12.32;70.41
62600;BME280;48671;48.922;2.346;2023-03-18T03:20:32;100703.94;;;12.29;70.03
62600;BME280;48671;48.922;2.346;2023-03-18T03:23:01;100729.88;;;12.32;70.35
62600;BME280;48671;48.922;2.346;2023-03-18T03:25:27;100725.63;;;12.29;70.20
62600;BME280;48671;48.922;2.346;2023-03-18T03:27:53;100708.59;;;12.22;70.28
62600;BME280;48671;48.922;2.346;2023-03-18T03:30:18;100715.56;;;12.22;70.62
62600;BME280;48671;48.922;2.346;2023-03-18T03:32:44;100711.47;;;12.16;70.16
62600;BME280;48671;48.922;2.346;2023-03-18T03:35:14;100720.50;;;12.28;70.17
62600;BME280;48671;48.922;2.346;2023-03-18T03:37:40;100720.16;;;12.16;70.29
62600;BME280;48671;48.922;2.346;2023-03-18T03:40:07;100714.22;;;12.13;70.32
62600;BME280;48671;48.922;2.346;2023-03-18T03:42:33;100713.31;;;12.14;70.42
62600;BME280;48671;48.922;2.346;2023-03-18T03:44:58;100719.16;;;12.19;70.20
62600;BME280;48671;48.922;2.346;2023-03-18T03:47:24;100719.25;;;12.17;70.80
62600;BME280;48671;48.922;2.346;2023-03-18T03:49:50;100727.06;;;12.17;70.23
62600;BME280;48671;48.922;2.346;2023-03-18T03:52:16;100724.31;;;12.21;70.01
62600;BME280;48671;48.922;2.346;2023-03-18T03:54:44;100733.81;;;12.22;70.17
62600;BME280;48671;48.922;2.346;2023-03-18T03:57:09;100731.31;;;12.20;69.86
62600;BME280;48671;48.922;2.346;2023-03-18T03:59:36;100729.59;;;12.19;69.82
62600;BME280;48671;48.922;2.346;2023-03-18T04:02:01;100732.16;;;12.21;69.64
62600;BME280;48671;48.922;2.346;2023-03-18T04:04:27;100726.97;;;12.19;69.71
62600;BME280;48671;48.922;2.346;2023-03-18T04:06:52;100737.50;;;12.17;70.84
62600;BME280;48671;48.922;2.346;2023-03-18T04:09:18;100733.41;;;12.12;70.26
62600;BME280;48671;48.922;2.346;2023-03-18T04:11:43;100731.84;;;12.08;71.32
62600;BME280;48671;48.922;2.346;2023-03-18T04:14:09;100728.56;;;12.03;71.61
62600;BME280;48671;48.922;2.346;2023-03-18T04:16:34;100726.75;;;12.05;71.29
62600;BME280;48671;48.922;2.346;2023-03-18T04:18:59;100731.91;;;12.06;71.10
62600;BME280;48671;48.922;2.346;2023-03-18T04:21:25;100732.63;;;12.10;71.70
62600;BME280;48671;48.922;2.346;2023-03-18T04:23:50;100733.59;;;12.07;71.71
62600;BME280;48671;48.922;2.346;2023-03-18T04:26:15;100728.44;;;12.06;71.36
62600;BME280;48671;48.922;2.346;2023-03-18T04:28:41;100716.47;;;12.02;71.54
62600;BME280;48671;48.922;2.346;2023-03-18T04:31:06;100738.13;;;12.04;71.79
62600;BME280;48671;48.922;2.346;2023-03-18T04:33:32;100730.28;;;12.04;71.93
62600;BME280;48671;48.922;2.346;2023-03-18T04:35:58;100736.94;;;12.11;71.48
62600;BME280;48671;48.922;2.346;2023-03-18T04:38:23;100729.94;;;12.11;72.00
62600;BME280;48671;48.922;2.346;2023-03-18T04:40:49;100719.78;;;12.05;72.19
62600;BME280;48671;48.922;2.346;2023-03-18T04:43:14;100742.84;;;12.14;72.17
62600;BME280;48671;48.922;2.346;2023-03-18T04:45:39;100727.34;;;12.11;72.83
62600;BME280;48671;48.922;2.346;2023-03-18T04:48:05;100728.44;;;12.06;72.44
62600;BME280;48671;48.922;2.346;2023-03-18T04:50:30;100725.13;;;12.02;72.67
62600;BME280;48671;48.922;2.346;2023-03-18T04:52:56;100731.84;;;12.08;72.40
62600;BME280;48671;48.922;2.346;2023-03-18T04:55:22;100738.69;;;12.10;72.60
62600;BME280;48671;48.922;2.346;2023-03-18T04:57:48;100720.00;;;12.01;72.90
62600;BME280;48671;48.922;2.346;2023-03-18T05:00:16;100742.31;;;12.06;73.29
62600;BME280;48671;48.922;2.346;2023-03-18T05:02:45;100738.16;;;12.02;72.50
62600;BME280;48671;48.922;2.346;2023-03-18T05:05:11;100746.13;;;11.99;72.78
62600;BME280;48671;48.922;2.346;2023-03-18T05:07:36;100740.34;;;11.92;73.40
62600;BME280;48671;48.922;2.346;2023-03-18T05:10:03;100742.94;;;11.92;73.21
62600;BME280;48671;48.922;2.346;2023-03-18T05:12:31;100734.41;;;11.89;73.08
62600;BME280;48671;48.922;2.346;2023-03-18T05:14:56;100717.78;;;11.71;74.07
62600;BME280;48671;48.922;2.346;2023-03-18T05:17:21;100726.31;;;11.75;74.12
62600;BME280;48671;48.922;2.346;2023-03-18T05:19:47;100730.81;;;11.71;74.07
62600;BME280;48671;48.922;2.346;2023-03-18T05:22:15;100716.56;;;11.59;74.07
62600;BME280;48671;48.922;2.346;2023-03-18T05:24:42;100723.44;;;11.60;74.27
62600;BME280;48671;48.922;2.346;2023-03-18T05:27:09;100727.94;;;11.57;73.53
62600;BME280;48671;48.922;2.346;2023-03-18T05:29:39;100730.63;;;11.55;74.70
62600;BME280;48671;48.922;2.346;2023-03-18T05:32:05;100732.53;;;11.52;75.23
62600;BME280;48671;48.922;2.346;2023-03-18T05:34:35;100715.63;;;11.40;75.23
62600;BME280;48671;48.922;2.346;2023-03-18T05:37:05;100723.31;;;11.43;74.91
62600;BME280;48671;48.922;2.346;2023-03-18T05:39:32;100715.63;;;11.40;75.89
62600;BME280;48671;48.922;2.346;2023-03-18T05:41:58;100711.41;;;11.37;75.50
62600;BME280;48671;48.922;2.346;2023-03-18T05:44:24;100720.13;;;11.36;75.43
62600;BME280;48671;48.922;2.346;2023-03-18T05:46:49;100719.34;;;11.34;75.39
62600;BME280;48671;48.922;2.346;2023-03-18T05:49:17;100707.63;;;11.24;75.25
62600;BME280;48671;48.922;2.346;2023-03-18T05:51:42;100704.84;;;11.29;75.98
62600;BME280;48671;48.922;2.346;2023-03-18T05:54:08;100704.84;;;11.29;75.64
62600;BME280;48671;48.922;2.346;2023-03-18T05:56:34;100709.03;;;11.31;74.94
62600;BME280;48671;48.922;2.346;2023-03-18T05:58:59;100716.72;;;11.34;75.58
62600;BME280;48671;48.922;2.346;2023-03-18T06:01:25;100720.38;;;11.30;75.30
62600;BME280;48671;48.922;2.346;2023-03-18T06:03:50;100715.25;;;11.29;75.26
62600;BME280;48671;48.922;2.346;2023-03-18T06:06:17;100723.72;;;11.34;75.78
62600;BME280;48671;48.922;2.346;2023-03-18T06:08:44;100721.09;;;11.34;75.86
62600;BME280;48671;48.922;2.346;2023-03-18T06:11:10;100723.84;;;11.31;76.30
62600;BME280;48671;48.922;2.346;2023-03-18T06:13:36;100714.78;;;11.19;76.70
62600;BME280;48671;48.922;2.346;2023-03-18T06:16:01;100724.03;;;11.26;76.21
62600;BME280;48671;48.922;2.346;2023-03-18T06:18:27;100726.63;;;11.26;75.53
62600;BME280;48671;48.922;2.346;2023-03-18T06:20:53;100717.19;;;11.23;75.95
62600;BME280;48671;48.922;2.346;2023-03-18T06:23:18;100714.59;;;11.23;75.82
62600;BME280;48671;48.922;2.346;2023-03-18T06:25:44;100730.81;;;11.30;76.65
62600;BME280;48671;48.922;2.346;2023-03-18T06:28:11;100723.97;;;11.28;76.86
62600;BME280;48671;48.922;2.346;2023-03-18T06:30:38;100732.78;;;11.25;75.85
62600;BME280;48671;48.922;2.346;2023-03-18T06:33:03;100731.84;;;11.26;76.49
62600;BME280;48671;48.922;2.346;2023-03-18T06:35:28;100713.94;;;11.18;75.94
62600;BME280;48671;48.922;2.346;2023-03-18T06:37:55;100730.94;;;11.27;75.86
62600;BME280;48671;48.922;2.346;2023-03-18T06:40:21;100732.09;;;11.20;75.88
62600;BME280;48671;48.922;2.346;2023-03-18T06:42:48;100732.09;;;11.20;75.82
62600;BME280;48671;48.922;2.346;2023-03-18T06:45:13;100738.03;;;11.23;76.72
62600;BME280;48671;48.922;2.346;2023-03-18T06:47:39;100745.84;;;11.23;76.66
62600;BME280;48671;48.922;2.346;2023-03-18T06:50:05;100750.91;;;11.27;76.28
62600;BME280;48671;48.922;2.346;2023-03-18T06:52:31;100746.63;;;11.25;75.71
62600;BME280;48671;48.922;2.346;2023-03-18T06:54:56;100743.09;;;11.27;75.44
62600;BME280;48671;48.922;2.346;2023-03-18T06:57:22;100748.13;;;11.31;75.59
62600;BME280;48671;48.922;2.346;2023-03-18T06:59:47;100746.50;;;11.29;75.78
62600;BME280;48671;48.922;2.346;2023-03-18T07:02:13;100750.72;;;11.31;75.54
62600;BME280;48671;48.922;2.346;2023-03-18T07:04:39;100754.97;;;11.34;75.53
62600;BME280;48671;48.922;2.346;2023-03-18T07:07:05;100752.09;;;11.40;75.03
62600;BME280;48671;48.922;2.346;2023-03-18T07:09:31;100751.06;;;11.44;75.25
62600;BME280;48671;48.922;2.346;2023-03-18T07:11:58;100759.34;;;11.54;75.02
62600;BME280;48671;48.922;2.346;2023-03-18T07:14:24;100743.66;;;11.55;74.80
62600;BME280;48671;48.922;2.346;2023-03-18T07:16:50;100750.31;;;11.62;74.64
62600;BME280;48671;48.922;2.346;2023-03-18T07:19:16;100760.38;;;11.70;74.65
62600;BME280;48671;48.922;2.346;2023-03-18T07:21:42;100760.97;;;11.77;74.04
62600;BME280;48671;48.922;2.346;2023-03-18T07:24:08;100760.78;;;11.81;73.72
62600;BME280;48671;48.922;2.346;2023-03-18T07:26:34;100758.84;;;11.86;73.51
62600;BME280;48671;48.922;2.346;2023-03-18T07:28:59;100768.31;;;11.89;73.00
62600;BME280;48671;48.922;2.346;2023-03-18T07:31:24;100769.84;;;11.93;73.12
62600;BME280;48671;48.922;2.346;2023-03-18T07:33:50;100770.31;;;12.03;72.85
62600;BME280;48671;48.922;2.346;2023-03-18T07:36:16;100772.59;;;12.10;72.59
62600;BME280;48671;48.922;2.346;2023-03-18T07:38:41;100776.34;;;12.24;72.58
62600;BME280;48671;48.922;2.346;2023-03-18T07:41:07;100771.56;;;12.33;72.31
62600;BME280;48671;48.922;2.346;2023-03-18T07:43:32;100780.44;;;12.48;72.05
62600;BME280;48671;48.922;2.346;2023-03-18T07:45:58;100779.97;;;12.59;71.07
62600;BME280;48671;48.922;2.346;2023-03-18T07:48:24;100773.47;;;12.86;69.52
62600;BME280;48671;48.922;2.346;2023-03-18T07:50:49;100789.81;;;13.45;68.69
62600;BME280;48671;48.922;2.346;2023-03-18T07:53:15;100785.41;;;13.98;67.87
62600;BME280;48671;48.922;2.346;2023-03-18T07:55:41;100772.72;;;14.57;64.59
62600;BME280;48671;48.922;2.346;2023-03-18T07:58:06;100771.50;;;15.10;64.30
62600;BME280;48671;48.922;2.346;2023-03-18T08:00:33;100769.31;;;15.48;61.84
62600;BME280;48671;48.922;2.346;2023-03-18T08:02:59;100766.91;;;15.59;58.81
62600;BME280;48671;48.922;2.346;2023-03-18T08:05:25;100773.84;;;15.90;61.76
62600;BME280;48671;48.922;2.346;2023-03-18T08:07:51;100776.56;;;16.03;59.29
62600;BME280;48671;48.922;2.346;2023-03-18T08:10:18;100774.41;;;16.24;60.39
62600;BME280;48671;48.922;2.346;2023-03-18T08:12:43;100778.63;;;16.55;59.87
62600;BME280;48671;48.922;2.346;2023-03-18T08:15:09;100764.72;;;16.68;59.15
62600;BME280;48671;48.922;2.346;2023-03-18T08:17:36;100780.16;;;16.87;59.29
62600;BME280;48671;48.922;2.346;2023-03-18T08:20:01;100780.88;;;17.03;57.62
62600;BME280;48671;48.922;2.346;2023-03-18T08:22:28;100777.97;;;17.07;56.51
62600;BME280;48671;48.922;2.346;2023-03-18T08:24:53;100789.81;;;17.00;57.26
62600;BME280;48671;48.922;2.346;2023-03-18T08:27:19;100799.47;;;17.00;57.43
62600;BME280;48671;48.922;2.346;2023-03-18T08:29:45;100804.31;;;16.79;56.53
62600;BME280;48671;48.922;2.346;2023-03-18T08:32:11;100797.91;;;16.69;57.42
62600;BME280;48671;48.922;2.346;2023-03-18T08:34:36;100789.78;;;16.45;58.46
62600;BME280;48671;48.922;2.346;2023-03-18T08:37:02;100801.97;;;16.17;58.89
62600;BME280;48671;48.922;2.346;2023-03-18T08:39:27;100785.94;;;15.93;59.73
62600;BME280;48671;48.922;2.346;2023-03-18T08:41:53;100794.56;;;15.65;60.14
62600;BME280;48671;48.922;2.346;2023-03-18T08:44:18;100790.38;;;15.46;60.25
62600;BME280;48671;48.922;2.346;2023-03-18T08:46:44;100786.19;;;15.28;61.91
62600;BME280;48671;48.922;2.346;2023-03-18T08:49:09;100771.94;;;15.18;61.79
62600;BME280;48671;48.922;2.346;2023-03-18T08:51:35;100777.69;;;15.09;62.03
62600;BME280;48671;48.922;2.346;2023-03-18T08:54:00;100787.06;;;15.13;61.57
62600;BME280;48671;48.922;2.346;2023-03-18T08:56:26;100783.00;;;15.23;61.83
62600;BME280;48671;48.922;2.346;2023-03-18T08:58:51;100777.88;;;15.36;62.02
62600;BME280;48671;48.922;2.346;2023-03-18T09:01:17;100768.56;;;15.46;61.80
62600;BME280;48671;48.922;2.346;2023-03-18T09:03:46;100776.47;;;15.60;61.34
62600;BME280;48671;48.922;2.346;2023-03-18T09:06:11;100773.44;;;15.68;60.54
62600;BME280;48671;48.922;2.346;2023-03-18T09:08:37;100772.59;;;15.67;60.06
62600;BME280;48671;48.922;2.346;2023-03-18T09:11:03;100764.94;;;15.63;59.66
62600;BME280;48671;48.922;2.346;2023-03-18T09:13:29;100767.66;;;15.61;60.04
62600;BME280;48671;48.922;2.346;2023-03-18T09:15:54;100763.78;;;15.68;61.20
62600;BME280;48671;48.922;2.346;2023-03-18T09:18:19;100765.69;;;15.81;60.25
62600;BME280;48671;48.922;2.346;2023-03-18T09:20:47;100774.88;;;15.88;60.92
62600;BME280;48671;48.922;2.346;2023-03-18T09:23:13;100776.09;;;15.97;60.57
62600;BME280;48671;48.922;2.346;2023-03-18T09:25:40;100774.41;;;16.10;60.24
62600;BME280;48671;48.922;2.346;2023-03-18T09:28:08;100781.63;;;16.06;59.68
62600;BME280;48671;48.922;2.346;2023-03-18T09:30:34;100784.63;;;16.00;59.16
62600;BME280;48671;48.922;2.346;2023-03-18T09:32:59;100788.25;;;15.83;58.50
62600;BME280;48671;48.922;2.346;2023-03-18T09:35:26;100778.59;;;15.70;59.05
62600;BME280;48671;48.922;2.346;2023-03-18T09:37:53;100783.75;;;15.71;59.57
62600;BME280;48671;48.922;2.346;2023-03-18T09:41:13;100781.13;;;15.85;59.70
62600;BME280;48671;48.922;2.346;2023-03-18T09:52:30;100773.03;;;16.19;58.81
62600;BME280;48671;48.922;2.346;2023-03-18T09:55:11;100773.84;;;16.33;58.46
62600;BME280;48671;48.922;2.346;2023-03-18T09:57:47;100765.59;;;16.39;57.69
62600;BME280;48671;48.922;2.346;2023-03-18T10:00:51;100771.50;;;16.43;55.72
62600;BME280;48671;48.922;2.346;2023-03-18T10:03:34;100778.50;;;16.57;57.04
62600;BME280;48671;48.922;2.346;2023-03-18T10:06:05;100766.66;;;16.64;57.50
62600;BME280;48671;48.922;2.346;2023-03-18T10:08:45;100779.06;;;16.76;55.81
62600;BME280;48671;48.922;2.346;2023-03-18T10:11:24;100777.72;;;16.83;56.11
62600;BME280;48671;48.922;2.346;2023-03-18T10:14:09;100777.25;;;16.91;56.30
62600;BME280;48671;48.922;2.346;2023-03-18T10:19:22;100775.47;;;17.19;56.65
62600;BME280;48671;48.922;2.346;2023-03-18T10:22:03;100777.44;;;17.55;55.96
62600;BME280;48671;48.922;2.346;2023-03-18T10:24:52;100772.00;;;17.71;55.03
62600;BME280;48671;48.922;2.346;2023-03-18T10:27:44;100785.09;;;17.98;53.69
62600;BME280;48671;48.922;2.346;2023-03-18T10:35:48;100772.09;;;17.57;52.24
62600;BME280;48671;48.922;2.346;2023-03-18T10:38:25;100781.78;;;17.29;53.76
62600;BME280;48671;48.922;2.346;2023-03-18T10:40:54;100781.94;;;17.13;51.63
62600;BME280;48671;48.922;2.346;2023-03-18T10:43:23;100780.72;;;16.92;52.51
62600;BME280;48671;48.922;2.346;2023-03-18T10:46:05;100789.56;;;16.76;53.10
62600;BME280;48671;48.922;2.346;2023-03-18T10:48:49;100765.84;;;16.78;53.10
62600;BME280;48671;48.922;2.346;2023-03-18T10:51:38;100771.00;;;17.06;51.93
62600;BME280;48671;48.922;2.346;2023-03-18T10:56:35;100754.88;;;17.25;51.86
62600;BME280;48671;48.922;2.346;2023-03-18T10:59:09;100777.22;;;17.45;51.13
62600;BME280;48671;48.922;2.346;2023-03-18T11:01:37;100767.13;;;17.65;50.35
62600;BME280;48671;48.922;2.346;2023-03-18T11:04:04;100786.66;;;17.88;48.85
62600;BME280;48671;48.922;2.346;2023-03-18T11:07:00;100781.09;;;17.92;50.44
62600;BME280;48671;48.922;2.346;2023-03-18T11:09:32;100770.56;;;17.80;50.50
62600;BME280;48671;48.922;2.346;2023-03-18T11:12:06;100781.97;;;17.53;49.79
62600;BME280;48671;48.922;2.346;2023-03-18T11:14:32;100757.97;;;17.45;50.75
62600;BME280;48671;48.922;2.346;2023-03-18T11:19:39;100754.91;;;17.51;50.98
62600;BME280;48671;48.922;2.346;2023-03-18T11:22:24;100769.09;;;17.88;49.30
62600;BME280;48671;48.922;2.346;2023-03-18T11:27:32;100777.72;;;18.03;47.05
62600;BME280;48671;48.922;2.346;2023-03-18T11:30:02;100767.41;;;17.87;47.63
62600;BME280;48671;48.922;2.346;2023-03-18T11:32:32;100767.19;;;17.90;47.26
62600;BME280;48671;48.922;2.346;2023-03-18T11:35:05;100771.41;;;18.18;48.04
62600;BME280;48671;48.922;2.346;2023-03-18T11:37:33;100765.81;;;18.23;47.24
62600;BME280;48671;48.922;2.346;2023-03-18T11:40:25;100768.84;;;18.30;48.62
62600;BME280;48671;48.922;2.346;2023-03-18T11:43:03;100759.75;;;18.46;47.93
62600;BME280;48671;48.922;2.346;2023-03-18T11:45:40;100760.94;;;18.30;47.55
62600;BME280;48671;48.922;2.346;2023-03-18T11:48:13;100750.19;;;18.45;47.68
62600;BME280;48671;48.922;2.346;2023-03-18T11:50:59;100749.69;;;18.77;48.17
62600;BME280;48671;48.922;2.346;2023-03-18T11:56:00;100759.94;;;18.56;46.98
62600;BME280;48671;48.922;2.346;2023-03-18T12:01:22;100766.97;;;18.32;47.20
62600;BME280;48671;48.922;2.346;2023-03-18T12:06:30;100761.47;;;18.47;47.69
62600;BME280;48671;48.922;2.346;2023-03-18T12:09:02;100764.50;;;18.54;47.62
62600;BME280;48671;48.922;2.346;2023-03-18T12:11:44;100760.03;;;18.80;45.95
62600;BME280;48671;48.922;2.346;2023-03-18T12:14:20;100759.34;;;18.89;45.34
62600;BME280;48671;48.922;2.346;2023-03-18T12:19:50;100769.22;;;18.99;45.08
62600;BME280;48671;48.922;2.346;2023-03-18T12:25:29;100758.03;;;19.43;45.30
62600;BME280;48671;48.922;2.346;2023-03-18T12:27:59;100757.94;;;19.21;44.75
62600;BME280;48671;48.922;2.346;2023-03-18T12:30:38;100756.88;;;19.23;44.88
62600;BME280;48671;48.922;2.346;2023-03-18T12:36:35;100753.66;;;19.31;45.49
62600;BME280;48671;48.922;2.346;2023-03-18T12:42:00;100738.41;;;18.99;45.51
62600;BME280;48671;48.922;2.346;2023-03-18T12:49:27;100751.97;;;18.45;46.52
62600;BME280;48671;48.922;2.346;2023-03-18T12:52:04;100747.22;;;18.37;46.80
62600;BME280;48671;48.922;2.346;2023-03-18T12:54:37;100744.41;;;18.28;47.81
62600;BME280;48671;48.922;2.346;2023-03-18T12:57:11;100741.91;;;18.13;47.41
62600;BME280;48671;48.922;2.346;2023-03-18T12:59:55;100755.72;;;18.04;47.78
62600;BME280;48671;48.922;2.346;2023-03-18T13:02:51;100758.34;;;17.91;47.71
62600;BME280;48671;48.922;2.346;2023-03-18T13:05:22;100752.78;;;17.83;48.48
62600;BME280;48671;48.922;2.346;2023-03-18T13:08:02;100752.25;;;17.78;48.73
62600;BME280;48671;48.922;2.346;2023-03-18T13:10:33;100757.25;;;17.68;49.91
62600;BME280;48671;48.922;2.346;2023-03-18T13:13:03;100746.81;;;17.54;48.31
62600;BME280;48671;48.922;2.346;2023-03-18T13:15:38;100759.44;;;17.49;49.31
62600;BME280;48671;48.922;2.346;2023-03-18T13:18:12;100759.34;;;17.50;50.14
62600;BME280;48671;48.922;2.346;2023-03-18T13:20:42;100755.44;;;17.43;49.84
62600;BME280;48671;48.922;2.346;2023-03-18T13:36:51;100766.84;;;17.29;50.79
62600;BME280;48671;48.922;2.346;2023-03-18T13:39:38;100763.50;;;17.27;50.76
62600;BME280;48671;48.922;2.346;2023-03-18T13:42:23;100774.31;;;17.23;50.65
62600;BME280;48671;48.922;2.346;2023-03-18T13:47:32;100755.72;;;16.99;51.47
62600;BME280;48671;48.922;2.346;2023-03-18T13:50:00;100765.66;;;17.08;52.74
62600;BME280;48671;48.922;2.346;2023-03-18T13:52:41;100755.41;;;17.03;52.26
62600;BME280;48671;48.922;2.346;2023-03-18T14:00:43;100750.41;;;17.13;52.33
62600;BME280;48671;48.922;2.346;2023-03-18T14:05:40;100755.81;;;17.24;51.33
62600;BME280;48671;48.922;2.346;2023-03-18T14:14:03;100733.94;;;17.76;49.97
62600;BME280;48671;48.922;2.346;2023-03-18T14:19:05;100721.44;;;18.66;49.20
62600;BME280;48671;48.922;2.346;2023-03-18T14:21:43;100728.47;;;19.03;48.31
62600;BME280;48671;48.922;2.346;2023-03-18T14:26:41;100722.63;;;18.62;46.46